sensor_id;sensor_type;location;lat;lon;timestamp;temperature;humidity
15133;DHT22;7667;51.232;17.110;2023-07-13T00:01:07;18.60;99.90
15133;DHT22;7667;51.232;17.110;2023-07-13T00:03:34;18.60;99.90
15133;DHT22;7667;51.232;17.110;2023-07-13T00:06:02;18.70;99.90
15133;DHT22;7667;51.232;17.110;2023-07-13T00:08:31;18.70;99.90
15133;DHT22;7667;51.232;17.110;2023-07-13T00:11:01;18.70;99.90
15133;DHT22;7667;51.232;17.110;2023-07-13T00:13:29;18.70;99.90
15133;DHT22;7667;51.232;17.110;2023-07-13T00:15:58;18.60;99.90
15133;DHT22;7667;51.232;17.110;2023-07-13T00:18:26;18.60;99.90
15133;DHT22;7667;51.232;17.110;2023-07-13T00:20:57;18.60;99.90
15133;DHT22;7667;51.232;17.110;2023-07-13T00:23:36;18.60;99.90
15133;DHT22;7667;51.232;17.110;2023-07-13T00:26:09;18.50;99.90
15133;DHT22;7667;51.232;17.110;2023-07-13T00:28:39;18.50;99.90
15133;DHT22;7667;51.232;17.110;2023-07-13T00:31:07;18.40;99.90
15133;DHT22;7667;51.232;17.110;2023-07-13T00:33:36;18.40;99.90
15133;DHT22;7667;51.232;17.110;2023-07-13T00:36:04;18.50;99.90
15133;DHT22;7667;51.232;17.110;2023-07-13T00:38:32;18.50;99.90
15133;DHT22;7667;51.232;17.110;2023-07-13T00:41:00;18.60;99.90
15133;DHT22;7667;51.232;17.110;2023-07-13T00:43:28;18.60;99.90
15133;DHT22;7667;51.232;17.110;2023-07-13T00:46:13;18.70;99.90
15133;DHT22;7667;51.232;17.110;2023-07-13T00:48:48;18.80;99.90
15133;DHT22;7667;51.232;17.110;2023-07-13T00:51:24;19.00;99.90
15133;DHT22;7667;51.232;17.110;2023-07-13T00:53:57;19.20;99.90
15133;DHT22;7667;51.232;17.110;2023-07-13T00:56:27;19.30;99.90
15133;DHT22;7667;51.232;17.110;2023-07-13T00:58:55;19.30;99.90
15133;DHT22;7667;51.232;17.110;2023-07-13T01:01:24;19.30;99.90
15133;DHT22;7667;51.232;17.110;2023-07-13T01:03:52;19.30;99.90
15133;DHT22;7667;51.232;17.110;2023-07-13T01:06:21;19.10;99.90
15133;DHT22;7667;51.232;17.110;2023-07-13T01:08:48;19.20;99.90
15133;DHT22;7667;51.232;17.110;2023-07-13T01:11:21;19.10;99.90
15133;DHT22;7667;51.232;17.110;2023-07-13T01:13:52;19.00;99.90
15133;DHT22;7667;51.232;17.110;2023-07-13T01:16:27;19.00;99.90
15133;DHT22;7667;51.232;17.110;2023-07-13T01:18:58;18.70;99.90
15133;DHT22;7667;51.232;17.110;2023-07-13T01:21:28;18.40;99.90
15133;DHT22;7667;51.232;17.110;2023-07-13T01:23:57;18.20;99.90
15133;DHT22;7667;51.232;17.110;2023-07-13T01:26:25;18.00;99.90
15133;DHT22;7667;51.232;17.110;2023-07-13T01:28:54;17.80;99.90
15133;DHT22;7667;51.232;17.110;2023-07-13T01:31:23;17.60;99.90
15133;DHT22;7667;51.232;17.110;2023-07-13T01:33:51;17.50;99.90
15133;DHT22;7667;51.232;17.110;2023-07-13T01:36:19;17.30;99.90
15133;DHT22;7667;51.232;17.110;2023-07-13T01:38:48;17.20;99.90
15133;DHT22;7667;51.232;17.110;2023-07-13T01:41:16;17.10;99.90
15133;DHT22;7667;51.232;17.110;2023-07-13T01:43:44;17.00;99.90
15133;DHT22;7667;51.232;17.110;2023-07-13T01:46:11;16.90;99.90
15133;DHT22;7667;51.232;17.110;2023-07-13T01:48:50;16.90;99.90
15133;DHT22;7667;51.232;17.110;2023-07-13T01:51:19;17.10;99.90
15133;DHT22;7667;51.232;17.110;2023-07-13T01:53:47;17.10;99.90
15133;DHT22;7667;51.232;17.110;2023-07-13T01:56:15;17.20;99.90
15133;DHT22;7667;51.232;17.110;2023-07-13T01:58:42;17.30;99.90
15133;DHT22;7667;51.232;17.110;2023-07-13T02:01:12;17.30;99.90
15133;DHT22;7667;51.232;17.110;2023-07-13T02:03:39;17.30;99.90
15133;DHT22;7667;51.232;17.110;2023-07-13T02:06:07;17.30;99.90
15133;DHT22;7667;51.232;17.110;2023-07-13T02:08:36;17.20;99.90
15133;DHT22;7667;51.232;17.110;2023-07-13T02:11:04;17.10;99.90
15133;DHT22;7667;51.232;17.110;2023-07-13T02:13:32;17.00;99.90
15133;DHT22;7667;51.232;17.110;2023-07-13T02:16:00;16.90;99.90
15133;DHT22;7667;51.232;17.110;2023-07-13T02:18:28;16.80;99.90
15133;DHT22;7667;51.232;17.110;2023-07-13T02:20:55;16.70;99.90
15133;DHT22;7667;51.232;17.110;2023-07-13T02:23:23;16.60;99.90
15133;DHT22;7667;51.232;17.110;2023-07-13T02:25:58;16.60;99.90
15133;DHT22;7667;51.232;17.110;2023-07-13T02:28:26;16.50;99.90
15133;DHT22;7667;51.232;17.110;2023-07-13T02:30:54;16.50;99.90
15133;DHT22;7667;51.232;17.110;2023-07-13T02:33:21;16.50;99.90
15133;DHT22;7667;51.232;17.110;2023-07-13T02:35:49;16.40;99.90
15133;DHT22;7667;51.232;17.110;2023-07-13T02:38:17;16.40;99.90
15133;DHT22;7667;51.232;17.110;2023-07-13T02:40:46;16.30;99.90
15133;DHT22;7667;51.232;17.110;2023-07-13T02:43:13;16.40;99.90
15133;DHT22;7667;51.232;17.110;2023-07-13T02:45:44;16.30;99.90
15133;DHT22;7667;51.232;17.110;2023-07-13T02:48:14;16.30;99.90
15133;DHT22;7667;51.232;17.110;2023-07-13T02:50:41;16.30;99.90
15133;DHT22;7667;51.232;17.110;2023-07-13T02:53:10;16.20;99.90
15133;DHT22;7667;51.232;17.110;2023-07-13T02:55:37;16.20;99.90
15133;DHT22;7667;51.232;17.110;2023-07-13T02:58:07;16.20;99.90
15133;DHT22;7667;51.232;17.110;2023-07-13T03:00:34;16.30;99.90
15133;DHT22;7667;51.232;17.110;2023-07-13T03:03:08;16.40;99.90
15133;DHT22;7667;51.232;17.110;2023-07-13T03:05:37;16.40;99.90
15133;DHT22;7667;51.232;17.110;2023-07-13T03:08:05;16.50;99.90
15133;DHT22;7667;51.232;17.110;2023-07-13T03:10:33;16.50;99.90
15133;DHT22;7667;51.232;17.110;2023-07-13T03:13:01;16.60;99.90
15133;DHT22;7667;51.232;17.110;2023-07-13T03:15:29;16.70;99.90
15133;DHT22;7667;51.232;17.110;2023-07-13T03:17:57;16.90;99.90
15133;DHT22;7667;51.232;17.110;2023-07-13T03:20:24;17.00;99.90
15133;DHT22;7667;51.232;17.110;2023-07-13T03:22:52;17.10;99.90
15133;DHT22;7667;51.232;17.110;2023-07-13T03:25:19;17.20;99.90
15133;DHT22;7667;51.232;17.110;2023-07-13T03:27:48;17.30;99.90
15133;DHT22;7667;51.232;17.110;2023-07-13T03:30:15;17.40;99.90
15133;DHT22;7667;51.232;17.110;2023-07-13T03:32:43;17.50;99.90
15133;DHT22;7667;51.232;17.110;2023-07-13T03:35:11;17.70;99.90
15133;DHT22;7667;51.232;17.110;2023-07-13T03:37:38;17.80;99.90
15133;DHT22;7667;51.232;17.110;2023-07-13T03:40:10;17.90;99.90
15133;DHT22;7667;51.232;17.110;2023-07-13T03:42:39;18.00;99.90
15133;DHT22;7667;51.232;17.110;2023-07-13T03:45:07;18.10;99.90
15133;DHT22;7667;51.232;17.110;2023-07-13T03:47:35;18.20;99.90
15133;DHT22;7667;51.232;17.110;2023-07-13T03:50:03;18.30;99.90
15133;DHT22;7667;51.232;17.110;2023-07-13T03:52:31;18.30;99.90
15133;DHT22;7667;51.232;17.110;2023-07-13T03:54:59;18.40;99.90
15133;DHT22;7667;51.232;17.110;2023-07-13T03:57:27;18.40;99.90
15133;DHT22;7667;51.232;17.110;2023-07-13T03:59:55;18.50;99.90
15133;DHT22;7667;51.232;17.110;2023-07-13T04:02:22;18.60;99.90
15133;DHT22;7667;51.232;17.110;2023-07-13T04:04:50;18.60;99.90
15133;DHT22;7667;51.232;17.110;2023-07-13T04:07:17;18.70;99.90
15133;DHT22;7667;51.232;17.110;2023-07-13T04:09:46;18.90;99.90
15133;DHT22;7667;51.232;17.110;2023-07-13T04:12:13;19.10;99.90
15133;DHT22;7667;51.232;17.110;2023-07-13T04:14:42;19.30;99.90
15133;DHT22;7667;51.232;17.110;2023-07-13T04:17:09;19.40;99.90
15133;DHT22;7667;51.232;17.110;2023-07-13T04:19:37;19.70;99.90
15133;DHT22;7667;51.232;17.110;2023-07-13T04:22:05;19.70;99.90
15133;DHT22;7667;51.232;17.110;2023-07-13T04:24:32;19.80;99.90
15133;DHT22;7667;51.232;17.110;2023-07-13T04:27:00;19.90;99.90
15133;DHT22;7667;51.232;17.110;2023-07-13T04:29:30;19.90;99.90
15133;DHT22;7667;51.232;17.110;2023-07-13T04:31:57;20.00;99.90
15133;DHT22;7667;51.232;17.110;2023-07-13T04:34:25;20.00;99.90
15133;DHT22;7667;51.232;17.110;2023-07-13T04:36:53;19.70;99.90
15133;DHT22;7667;51.232;17.110;2023-07-13T04:39:20;19.40;99.90
15133;DHT22;7667;51.232;17.110;2023-07-13T04:41:48;19.30;99.90
15133;DHT22;7667;51.232;17.110;2023-07-13T04:44:16;19.20;99.90
15133;DHT22;7667;51.232;17.110;2023-07-13T04:46:44;18.70;99.90
15133;DHT22;7667;51.232;17.110;2023-07-13T04:49:11;17.90;99.90
15133;DHT22;7667;51.232;17.110;2023-07-13T04:51:39;17.10;99.90
15133;DHT22;7667;51.232;17.110;2023-07-13T04:54:07;16.60;99.90
15133;DHT22;7667;51.232;17.110;2023-07-13T04:56:35;16.20;99.90
15133;DHT22;7667;51.232;17.110;2023-07-13T04:59:02;16.00;99.90
15133;DHT22;7667;51.232;17.110;2023-07-13T05:01:30;15.80;99.90
15133;DHT22;7667;51.232;17.110;2023-07-13T05:03:58;15.50;99.90
15133;DHT22;7667;51.232;17.110;2023-07-13T05:06:26;15.40;99.90
15133;DHT22;7667;51.232;17.110;2023-07-13T05:08:54;15.30;99.90
15133;DHT22;7667;51.232;17.110;2023-07-13T05:11:22;15.20;99.90
15133;DHT22;7667;51.232;17.110;2023-07-13T05:13:49;15.20;99.90
15133;DHT22;7667;51.232;17.110;2023-07-13T05:16:17;15.10;99.90
15133;DHT22;7667;51.232;17.110;2023-07-13T05:18:45;15.10;99.90
15133;DHT22;7667;51.232;17.110;2023-07-13T05:21:12;15.10;99.90
15133;DHT22;7667;51.232;17.110;2023-07-13T05:23:40;15.10;99.90
15133;DHT22;7667;51.232;17.110;2023-07-13T05:26:11;15.00;99.90
15133;DHT22;7667;51.232;17.110;2023-07-13T05:28:39;15.00;99.90
15133;DHT22;7667;51.232;17.110;2023-07-13T05:31:08;15.00;99.90
15133;DHT22;7667;51.232;17.110;2023-07-13T05:33:37;15.00;99.90
15133;DHT22;7667;51.232;17.110;2023-07-13T05:36:05;15.00;99.90
15133;DHT22;7667;51.232;17.110;2023-07-13T05:38:34;15.00;99.90
15133;DHT22;7667;51.232;17.110;2023-07-13T05:41:02;15.10;99.90
15133;DHT22;7667;51.232;17.110;2023-07-13T05:43:32;15.20;99.90
15133;DHT22;7667;51.232;17.110;2023-07-13T05:46:00;15.30;99.90
15133;DHT22;7667;51.232;17.110;2023-07-13T05:48:28;15.30;99.90
15133;DHT22;7667;51.232;17.110;2023-07-13T05:50:55;15.30;99.90
15133;DHT22;7667;51.232;17.110;2023-07-13T05:53:23;15.30;99.90
15133;DHT22;7667;51.232;17.110;2023-07-13T05:55:51;15.30;99.90
15133;DHT22;7667;51.232;17.110;2023-07-13T05:58:22;15.40;99.90
15133;DHT22;7667;51.232;17.110;2023-07-13T06:00:59;15.50;99.90
15133;DHT22;7667;51.232;17.110;2023-07-13T06:03:28;15.50;99.90
15133;DHT22;7667;51.232;17.110;2023-07-13T06:05:56;15.60;99.90
15133;DHT22;7667;51.232;17.110;2023-07-13T06:08:24;15.70;99.90
15133;DHT22;7667;51.232;17.110;2023-07-13T06:10:51;15.90;99.90
15133;DHT22;7667;51.232;17.110;2023-07-13T06:13:19;15.90;99.90
15133;DHT22;7667;51.232;17.110;2023-07-13T06:15:50;16.10;99.90
15133;DHT22;7667;51.232;17.110;2023-07-13T06:18:17;16.20;99.90
15133;DHT22;7667;51.232;17.110;2023-07-13T06:20:45;16.10;99.90
15133;DHT22;7667;51.232;17.110;2023-07-13T06:23:12;16.20;99.90
15133;DHT22;7667;51.232;17.110;2023-07-13T06:25:45;16.20;99.90
15133;DHT22;7667;51.232;17.110;2023-07-13T06:28:31;16.20;99.90
15133;DHT22;7667;51.232;17.110;2023-07-13T06:31:20;16.40;99.90
15133;DHT22;7667;51.232;17.110;2023-07-13T06:34:09;16.70;99.90
15133;DHT22;7667;51.232;17.110;2023-07-13T06:36:53;17.00;99.90
15133;DHT22;7667;51.232;17.110;2023-07-13T06:39:39;17.10;99.90
15133;DHT22;7667;51.232;17.110;2023-07-13T06:42:23;17.40;99.90
15133;DHT22;7667;51.232;17.110;2023-07-13T06:44:59;17.50;99.90
15133;DHT22;7667;51.232;17.110;2023-07-13T06:47:33;17.70;99.90
15133;DHT22;7667;51.232;17.110;2023-07-13T06:50:10;18.00;99.90
15133;DHT22;7667;51.232;17.110;2023-07-13T06:53:08;18.40;99.90
15133;DHT22;7667;51.232;17.110;2023-07-13T06:55:54;18.70;99.90
15133;DHT22;7667;51.232;17.110;2023-07-13T06:58:39;18.90;99.90
15133;DHT22;7667;51.232;17.110;2023-07-13T07:01:25;18.70;99.90
15133;DHT22;7667;51.232;17.110;2023-07-13T07:04:13;18.20;99.90
15133;DHT22;7667;51.232;17.110;2023-07-13T07:07:05;17.70;99.90
15133;DHT22;7667;51.232;17.110;2023-07-13T07:09:49;17.50;99.90
15133;DHT22;7667;51.232;17.110;2023-07-13T07:12:36;17.20;99.90
15133;DHT22;7667;51.232;17.110;2023-07-13T07:15:21;17.00;99.90
15133;DHT22;7667;51.232;17.110;2023-07-13T07:18:07;16.90;99.90
15133;DHT22;7667;51.232;17.110;2023-07-13T07:20:49;16.90;99.90
15133;DHT22;7667;51.232;17.110;2023-07-13T07:23:35;16.80;99.90
15133;DHT22;7667;51.232;17.110;2023-07-13T07:26:17;16.80;99.90
15133;DHT22;7667;51.232;17.110;2023-07-13T07:29:13;16.80;99.90
15133;DHT22;7667;51.232;17.110;2023-07-13T07:32:02;16.70;99.90
15133;DHT22;7667;51.232;17.110;2023-07-13T07:35:07;16.60;99.90
15133;DHT22;7667;51.232;17.110;2023-07-13T07:37:50;16.40;99.90
15133;DHT22;7667;51.232;17.110;2023-07-13T07:40:41;16.30;99.90
15133;DHT22;7667;51.232;17.110;2023-07-13T07:43:27;16.30;99.90
15133;DHT22;7667;51.232;17.110;2023-07-13T07:46:18;16.30;99.90
15133;DHT22;7667;51.232;17.110;2023-07-13T07:49:05;16.20;99.90
15133;DHT22;7667;51.232;17.110;2023-07-13T07:51:51;16.40;99.90
15133;DHT22;7667;51.232;17.110;2023-07-13T07:54:37;16.70;99.90
15133;DHT22;7667;51.232;17.110;2023-07-13T07:57:23;16.70;99.90
15133;DHT22;7667;51.232;17.110;2023-07-13T08:00:11;16.70;99.90
15133;DHT22;7667;51.232;17.110;2023-07-13T08:02:55;16.80;99.90
15133;DHT22;7667;51.232;17.110;2023-07-13T08:05:42;17.00;99.90
15133;DHT22;7667;51.232;17.110;2023-07-13T08:08:25;17.10;99.90
15133;DHT22;7667;51.232;17.110;2023-07-13T08:11:09;17.30;99.90
15133;DHT22;7667;51.232;17.110;2023-07-13T08:13:47;17.40;99.90
15133;DHT22;7667;51.232;17.110;2023-07-13T08:16:17;17.60;99.90
15133;DHT22;7667;51.232;17.110;2023-07-13T08:18:45;18.00;99.90
15133;DHT22;7667;51.232;17.110;2023-07-13T08:21:12;18.30;99.90
15133;DHT22;7667;51.232;17.110;2023-07-13T08:23:40;18.80;99.90
15133;DHT22;7667;51.232;17.110;2023-07-13T08:26:09;19.30;99.90
15133;DHT22;7667;51.232;17.110;2023-07-13T08:28:36;19.80;99.90
15133;DHT22;7667;51.232;17.110;2023-07-13T08:31:06;20.30;99.90
15133;DHT22;7667;51.232;17.110;2023-07-13T08:33:35;20.30;99.90
15133;DHT22;7667;51.232;17.110;2023-07-13T08:36:04;20.00;99.90
15133;DHT22;7667;51.232;17.110;2023-07-13T08:38:32;20.10;99.90
15133;DHT22;7667;51.232;17.110;2023-07-13T08:41:09;20.40;99.90
15133;DHT22;7667;51.232;17.110;2023-07-13T08:43:47;20.60;99.90
15133;DHT22;7667;51.232;17.110;2023-07-13T08:46:38;20.70;99.90
15133;DHT22;7667;51.232;17.110;2023-07-13T08:49:12;20.80;99.90
15133;DHT22;7667;51.232;17.110;2023-07-13T08:51:54;20.60;99.90
15133;DHT22;7667;51.232;17.110;2023-07-13T08:54:35;20.10;99.90
15133;DHT22;7667;51.232;17.110;2023-07-13T08:57:14;20.30;99.90
15133;DHT22;7667;51.232;17.110;2023-07-13T08:59:43;20.70;99.90
15133;DHT22;7667;51.232;17.110;2023-07-13T09:02:28;20.50;99.90
15133;DHT22;7667;51.232;17.110;2023-07-13T09:08:49;19.60;99.90
15133;DHT22;7667;51.232;17.110;2023-07-13T09:14:34;20.00;99.90
15133;DHT22;7667;51.232;17.110;2023-07-13T09:17:21;19.60;99.90
15133;DHT22;7667;51.232;17.110;2023-07-13T09:22:59;20.40;99.90
15133;DHT22;7667;51.232;17.110;2023-07-13T09:25:34;20.80;99.90
15133;DHT22;7667;51.232;17.110;2023-07-13T09:31:07;20.60;99.90
15133;DHT22;7667;51.232;17.110;2023-07-13T09:33:41;20.60;99.90
15133;DHT22;7667;51.232;17.110;2023-07-13T09:36:23;21.00;99.90
15133;DHT22;7667;51.232;17.110;2023-07-13T09:39:20;21.10;99.90
15133;DHT22;7667;51.232;17.110;2023-07-13T09:42:27;21.20;99.90
15133;DHT22;7667;51.232;17.110;2023-07-13T09:44:57;21.50;99.90
15133;DHT22;7667;51.232;17.110;2023-07-13T09:47:31;21.10;99.90
15133;DHT22;7667;51.232;17.110;2023-07-13T09:50:04;20.60;99.90
15133;DHT22;7667;51.232;17.110;2023-07-13T09:52:54;21.10;99.90
15133;DHT22;7667;51.232;17.110;2023-07-13T09:55:36;21.40;99.90
15133;DHT22;7667;51.232;17.110;2023-07-13T09:58:14;21.20;99.90
15133;DHT22;7667;51.232;17.110;2023-07-13T10:00:53;21.20;99.90
15133;DHT22;7667;51.232;17.110;2023-07-13T10:03:31;21.50;99.90
15133;DHT22;7667;51.232;17.110;2023-07-13T10:06:13;21.50;99.90
15133;DHT22;7667;51.232;17.110;2023-07-13T10:08:45;21.50;99.90
15133;DHT22;7667;51.232;17.110;2023-07-13T10:14:00;22.60;99.90
15133;DHT22;7667;51.232;17.110;2023-07-13T10:16:38;23.20;99.90
15133;DHT22;7667;51.232;17.110;2023-07-13T10:19:27;23.40;99.90
15133;DHT22;7667;51.232;17.110;2023-07-13T10:25:22;23.60;99.90
15133;DHT22;7667;51.232;17.110;2023-07-13T10:28:00;23.40;99.90
15133;DHT22;7667;51.232;17.110;2023-07-13T10:30:52;23.10;99.90
15133;DHT22;7667;51.232;17.110;2023-07-13T10:33:21;22.80;99.90
15133;DHT22;7667;51.232;17.110;2023-07-13T10:35:52;23.10;99.90
15133;DHT22;7667;51.232;17.110;2023-07-13T10:38:29;23.40;99.90
15133;DHT22;7667;51.232;17.110;2023-07-13T10:40:58;24.10;99.90
15133;DHT22;7667;51.232;17.110;2023-07-13T10:43:41;25.00;99.90
15133;DHT22;7667;51.232;17.110;2023-07-13T10:46:14;24.50;99.90
15133;DHT22;7667;51.232;17.110;2023-07-13T10:48:46;24.60;99.90
15133;DHT22;7667;51.232;17.110;2023-07-13T10:51:18;24.20;99.90
15133;DHT22;7667;51.232;17.110;2023-07-13T10:54:15;25.00;99.90
15133;DHT22;7667;51.232;17.110;2023-07-13T10:56:50;24.80;99.90
15133;DHT22;7667;51.232;17.110;2023-07-13T10:59:25;25.40;99.90
15133;DHT22;7667;51.232;17.110;2023-07-13T11:04:49;24.50;99.90
15133;DHT22;7667;51.232;17.110;2023-07-13T11:07:29;24.70;99.90
15133;DHT22;7667;51.232;17.110;2023-07-13T11:10:04;25.00;99.90
15133;DHT22;7667;51.232;17.110;2023-07-13T11:15:28;25.80;99.90
15133;DHT22;7667;51.232;17.110;2023-07-13T11:18:04;25.90;99.90
15133;DHT22;7667;51.232;17.110;2023-07-13T11:20:33;24.70;99.90
15133;DHT22;7667;51.232;17.110;2023-07-13T11:25:44;24.80;99.90
15133;DHT22;7667;51.232;17.110;2023-07-13T11:33:50;24.80;99.90
15133;DHT22;7667;51.232;17.110;2023-07-13T11:36:23;24.80;99.90
15133;DHT22;7667;51.232;17.110;2023-07-13T11:38:59;25.00;99.90
15133;DHT22;7667;51.232;17.110;2023-07-13T11:41:35;24.90;99.90
15133;DHT22;7667;51.232;17.110;2023-07-13T11:44:12;24.80;99.90
15133;DHT22;7667;51.232;17.110;2023-07-13T11:47:28;24.80;99.90
15133;DHT22;7667;51.232;17.110;2023-07-13T11:49:44;25.30;99.90
15133;DHT22;7667;51.232;17.110;2023-07-13T11:52:18;25.40;99.90
15133;DHT22;7667;51.232;17.110;2023-07-13T11:54:56;25.70;99.90
15133;DHT22;7667;51.232;17.110;2023-07-13T11:57:33;26.10;99.90
15133;DHT22;7667;51.232;17.110;2023-07-13T12:00:14;25.40;99.90
15133;DHT22;7667;51.232;17.110;2023-07-13T12:02:46;24.80;99.90
15133;DHT22;7667;51.232;17.110;2023-07-13T12:05:18;24.50;99.90
15133;DHT22;7667;51.232;17.110;2023-07-13T12:07:48;24.10;99.90
15133;DHT22;7667;51.232;17.110;2023-07-13T12:10:28;23.90;99.90
15133;DHT22;7667;51.232;17.110;2023-07-13T12:13:00;24.10;99.90
15133;DHT22;7667;51.232;17.110;2023-07-13T12:15:39;24.30;99.90
15133;DHT22;7667;51.232;17.110;2023-07-13T12:18:18;24.60;99.90
15133;DHT22;7667;51.232;17.110;2023-07-13T12:20:48;25.30;99.90
15133;DHT22;7667;51.232;17.110;2023-07-13T12:23:31;25.90;99.90
15133;DHT22;7667;51.232;17.110;2023-07-13T12:26:05;26.30;99.90
15133;DHT22;7667;51.232;17.110;2023-07-13T12:31:07;27.20;99.90
15133;DHT22;7667;51.232;17.110;2023-07-13T12:33:46;27.60;99.90
15133;DHT22;7667;51.232;17.110;2023-07-13T12:36:13;28.60;99.90
15133;DHT22;7667;51.232;17.110;2023-07-13T12:38:44;30.10;95.70
15133;DHT22;7667;51.232;17.110;2023-07-13T12:41:15;29.90;91.70
15133;DHT22;7667;51.232;17.110;2023-07-13T12:43:45;29.30;88.80
15133;DHT22;7667;51.232;17.110;2023-07-13T12:46:17;29.70;91.90
15133;DHT22;7667;51.232;17.110;2023-07-13T12:48:54;30.10;84.30
15133;DHT22;7667;51.232;17.110;2023-07-13T12:51:39;30.80;84.50
15133;DHT22;7667;51.232;17.110;2023-07-13T12:54:18;31.10;81.60
15133;DHT22;7667;51.232;17.110;2023-07-13T12:56:50;31.50;78.90
15133;DHT22;7667;51.232;17.110;2023-07-13T12:59:22;31.80;74.70
15133;DHT22;7667;51.232;17.110;2023-07-13T13:01:50;32.30;68.70
15133;DHT22;7667;51.232;17.110;2023-07-13T13:04:18;31.60;67.70
15133;DHT22;7667;51.232;17.110;2023-07-13T13:07:01;31.00;71.00
15133;DHT22;7667;51.232;17.110;2023-07-13T13:09:30;31.10;72.40
15133;DHT22;7667;51.232;17.110;2023-07-13T13:11:58;32.70;67.10
15133;DHT22;7667;51.232;17.110;2023-07-13T13:14:26;31.40;60.70
15133;DHT22;7667;51.232;17.110;2023-07-13T13:16:53;30.90;65.50
15133;DHT22;7667;51.232;17.110;2023-07-13T13:19:28;31.10;62.40
15133;DHT22;7667;51.232;17.110;2023-07-13T13:21:56;32.10;58.00
15133;DHT22;7667;51.232;17.110;2023-07-13T13:24:27;32.50;55.80
15133;DHT22;7667;51.232;17.110;2023-07-13T13:26:56;32.80;57.00
15133;DHT22;7667;51.232;17.110;2023-07-13T13:29:25;31.30;57.40
15133;DHT22;7667;51.232;17.110;2023-07-13T13:31:54;31.70;57.40
15133;DHT22;7667;51.232;17.110;2023-07-13T13:34:23;32.40;61.90
15133;DHT22;7667;51.232;17.110;2023-07-13T13:36:53;32.90;56.90
15133;DHT22;7667;51.232;17.110;2023-07-13T13:39:36;33.20;59.10
15133;DHT22;7667;51.232;17.110;2023-07-13T13:42:04;32.30;55.80
15133;DHT22;7667;51.232;17.110;2023-07-13T13:44:32;32.50;59.40
15133;DHT22;7667;51.232;17.110;2023-07-13T13:47:00;33.40;57.30
15133;DHT22;7667;51.232;17.110;2023-07-13T13:49:29;33.20;56.20
15133;DHT22;7667;51.232;17.110;2023-07-13T13:51:57;33.20;55.60
15133;DHT22;7667;51.232;17.110;2023-07-13T13:54:25;33.30;56.30
15133;DHT22;7667;51.232;17.110;2023-07-13T13:56:53;33.90;57.90
15133;DHT22;7667;51.232;17.110;2023-07-13T13:59:21;32.70;54.00
15133;DHT22;7667;51.232;17.110;2023-07-13T14:01:49;31.90;55.90
15133;DHT22;7667;51.232;17.110;2023-07-13T14:04:21;32.60;55.70
15133;DHT22;7667;51.232;17.110;2023-07-13T14:06:49;32.20;55.30
15133;DHT22;7667;51.232;17.110;2023-07-13T14:09:18;31.20;54.50
15133;DHT22;7667;51.232;17.110;2023-07-13T14:11:48;30.50;56.10
15133;DHT22;7667;51.232;17.110;2023-07-13T14:14:22;31.70;57.00
15133;DHT22;7667;51.232;17.110;2023-07-13T14:16:51;32.80;52.40
15133;DHT22;7667;51.232;17.110;2023-07-13T14:19:22;33.30;52.90
15133;DHT22;7667;51.232;17.110;2023-07-13T14:21:50;33.80;51.70
15133;DHT22;7667;51.232;17.110;2023-07-13T14:24:21;32.40;54.30
15133;DHT22;7667;51.232;17.110;2023-07-13T14:26:49;32.60;54.50
15133;DHT22;7667;51.232;17.110;2023-07-13T14:29:18;32.60;54.80
15133;DHT22;7667;51.232;17.110;2023-07-13T14:31:51;33.40;54.00
15133;DHT22;7667;51.232;17.110;2023-07-13T14:34:19;32.20;55.60
15133;DHT22;7667;51.232;17.110;2023-07-13T14:36:49;30.10;56.10
15133;DHT22;7667;51.232;17.110;2023-07-13T14:39:20;31.10;56.30
15133;DHT22;7667;51.232;17.110;2023-07-13T14:41:54;30.90;53.10
15133;DHT22;7667;51.232;17.110;2023-07-13T14:44:30;30.70;55.90
15133;DHT22;7667;51.232;17.110;2023-07-13T14:47:00;29.30;57.20
15133;DHT22;7667;51.232;17.110;2023-07-13T14:49:43;27.60;59.30
15133;DHT22;7667;51.232;17.110;2023-07-13T14:52:13;27.20;61.00
15133;DHT22;7667;51.232;17.110;2023-07-13T14:54:45;27.10;58.50
15133;DHT22;7667;51.232;17.110;2023-07-13T14:57:16;27.10;57.00
15133;DHT22;7667;51.232;17.110;2023-07-13T14:59:48;27.00;57.30
15133;DHT22;7667;51.232;17.110;2023-07-13T15:02:26;26.90;60.30
15133;DHT22;7667;51.232;17.110;2023-07-13T15:04:55;26.60;60.90
15133;DHT22;7667;51.232;17.110;2023-07-13T15:07:24;25.90;70.60
15133;DHT22;7667;51.232;17.110;2023-07-13T15:09:52;25.00;78.30
15133;DHT22;7667;51.232;17.110;2023-07-13T15:12:19;24.30;85.90
15133;DHT22;7667;51.232;17.110;2023-07-13T15:14:47;23.90;92.40
15133;DHT22;7667;51.232;17.110;2023-07-13T15:17:31;23.70;95.20
15133;DHT22;7667;51.232;17.110;2023-07-13T15:20:27;23.50;98.10
15133;DHT22;7667;51.232;17.110;2023-07-13T15:23:02;23.20;99.10
15133;DHT22;7667;51.232;17.110;2023-07-13T15:25:32;23.10;99.90
15133;DHT22;7667;51.232;17.110;2023-07-13T15:28:01;23.20;99.90
15133;DHT22;7667;51.232;17.110;2023-07-13T15:30:31;23.40;99.90
15133;DHT22;7667;51.232;17.110;2023-07-13T15:33:21;23.70;99.90
15133;DHT22;7667;51.232;17.110;2023-07-13T15:35:54;24.10;99.90
15133;DHT22;7667;51.232;17.110;2023-07-13T15:38:34;24.50;99.90
15133;DHT22;7667;51.232;17.110;2023-07-13T15:41:21;25.30;98.80
15133;DHT22;7667;51.232;17.110;2023-07-13T15:43:55;26.30;96.00
15133;DHT22;7667;51.232;17.110;2023-07-13T15:46:27;28.30;85.50
15133;DHT22;7667;51.232;17.110;2023-07-13T15:48:57;29.40;77.20
15133;DHT22;7667;51.232;17.110;2023-07-13T15:51:28;30.40;71.30
15133;DHT22;7667;51.232;17.110;2023-07-13T15:54:00;30.40;67.90
15133;DHT22;7667;51.232;17.110;2023-07-13T15:56:35;30.10;68.80
15133;DHT22;7667;51.232;17.110;2023-07-13T15:59:04;30.10;68.10
15133;DHT22;7667;51.232;17.110;2023-07-13T16:01:32;29.80;70.20
15133;DHT22;7667;51.232;17.110;2023-07-13T16:04:00;30.10;70.20
15133;DHT22;7667;51.232;17.110;2023-07-13T16:06:33;30.10;68.30
15133;DHT22;7667;51.232;17.110;2023-07-13T16:09:05;30.00;69.20
15133;DHT22;7667;51.232;17.110;2023-07-13T16:11:38;29.80;69.90
15133;DHT22;7667;51.232;17.110;2023-07-13T16:14:06;28.70;69.20
15133;DHT22;7667;51.232;17.110;2023-07-13T16:16:35;27.50;74.10
15133;DHT22;7667;51.232;17.110;2023-07-13T16:19:04;26.40;77.80
15133;DHT22;7667;51.232;17.110;2023-07-13T16:21:36;25.60;83.70
15133;DHT22;7667;51.232;17.110;2023-07-13T16:24:19;25.20;87.10
15133;DHT22;7667;51.232;17.110;2023-07-13T16:26:49;24.80;89.10
15133;DHT22;7667;51.232;17.110;2023-07-13T16:29:27;24.60;92.30
15133;DHT22;7667;51.232;17.110;2023-07-13T16:32:13;24.60;92.70
15133;DHT22;7667;51.232;17.110;2023-07-13T16:34:42;24.60;93.70
15133;DHT22;7667;51.232;17.110;2023-07-13T16:39:47;24.60;93.60
15133;DHT22;7667;51.232;17.110;2023-07-13T16:42:15;24.50;94.70
15133;DHT22;7667;51.232;17.110;2023-07-13T16:44:43;24.40;95.10